sensor_id;sensor_type;location;lat;lon;timestamp;pressure;altitude;pressure_sealevel;temperature;humidity
34370;BME280;20635;55.812;37.560;2023-07-02T00:02:15;97772.50;;;26.26;52.10
34370;BME280;20635;55.812;37.560;2023-07-02T00:04:42;97778.13;;;26.26;52.17
34370;BME280;20635;55.812;37.560;2023-07-02T00:07:08;97774.50;;;26.26;52.14
34370;BME280;20635;55.812;37.560;2023-07-02T00:09:34;97777.31;;;26.26;52.32
34370;BME280;20635;55.812;37.560;2023-07-02T00:11:59;97774.50;;;26.26;52.22
34370;BME280;20635;55.812;37.560;2023-07-02T00:14:25;97782.13;;;26.25;52.37
34370;BME280;20635;55.812;37.560;2023-07-02T00:16:51;97778.47;;;26.25;52.29
34370;BME280;20635;55.812;37.560;2023-07-02T00:19:16;97784.09;;;26.25;52.17
34370;BME280;20635;55.812;37.560;2023-07-02T00:21:43;97777.69;;;26.24;52.15
34370;BME280;20635;55.812;37.560;2023-07-02T00:24:08;97781.28;;;26.25;52.43
34370;BME280;20635;55.812;37.560;2023-07-02T00:26:37;97781.69;;;26.23;52.18
34370;BME280;20635;55.812;37.560;2023-07-02T00:29:03;97777.69;;;26.24;52.31
34370;BME280;20635;55.812;37.560;2023-07-02T00:31:31;97783.28;;;26.24;52.30
34370;BME280;20635;55.812;37.560;2023-07-02T00:33:58;97791.72;;;26.24;52.31
34370;BME280;20635;55.812;37.560;2023-07-02T00:36:24;97788.09;;;26.24;52.07
34370;BME280;20635;55.812;37.560;2023-07-02T00:38:50;97779.69;;;26.24;52.28
34370;BME280;20635;55.812;37.560;2023-07-02T00:41:15;97790.91;;;26.24;52.22
34370;BME280;20635;55.812;37.560;2023-07-02T00:43:41;97782.50;;;26.24;52.12
34370;BME280;20635;55.812;37.560;2023-07-02T00:46:13;97789.31;;;26.23;52.24
34370;BME280;20635;55.812;37.560;2023-07-02T00:48:46;97792.91;;;26.23;52.21
34370;BME280;20635;55.812;37.560;2023-07-02T00:51:13;97792.09;;;26.23;52.22
34370;BME280;20635;55.812;37.560;2023-07-02T00:53:40;97794.91;;;26.23;52.05
34370;BME280;20635;55.812;37.560;2023-07-02T00:56:06;97794.13;;;26.22;52.24
34370;BME280;20635;55.812;37.560;2023-07-02T00:58:33;97808.94;;;26.23;52.14
34370;BME280;20635;55.812;37.560;2023-07-02T01:01:03;97794.13;;;26.22;52.09
34370;BME280;20635;55.812;37.560;2023-07-02T01:03:28;97803.34;;;26.23;52.15
34370;BME280;20635;55.812;37.560;2023-07-02T01:05:58;97806.16;;;26.23;52.18
34370;BME280;20635;55.812;37.560;2023-07-02T01:08:25;97805.34;;;26.22;52.25
34370;BME280;20635;55.812;37.560;2023-07-02T01:10:50;97800.94;;;26.21;52.09
34370;BME280;20635;55.812;37.560;2023-07-02T01:13:17;97796.91;;;26.22;52.09
34370;BME280;20635;55.812;37.560;2023-07-02T01:15:44;97798.91;;;26.22;52.06
34370;BME280;20635;55.812;37.560;2023-07-02T01:18:10;97802.53;;;26.22;52.09
34370;BME280;20635;55.812;37.560;2023-07-02T01:20:38;97810.16;;;26.22;52.11
34370;BME280;20635;55.812;37.560;2023-07-02T01:23:04;97802.94;;;26.21;51.92
34370;BME280;20635;55.812;37.560;2023-07-02T01:25:29;97806.91;;;26.20;52.16
34370;BME280;20635;55.812;37.560;2023-07-02T01:27:55;97813.31;;;26.20;52.04
34370;BME280;20635;55.812;37.560;2023-07-02T01:30:24;97811.34;;;26.21;52.20
34370;BME280;20635;55.812;37.560;2023-07-02T01:32:50;97808.91;;;26.19;52.10
34370;BME280;20635;55.812;37.560;2023-07-02T01:35:16;97812.53;;;26.20;52.34
34370;BME280;20635;55.812;37.560;2023-07-02T01:37:41;97822.13;;;26.19;52.26
34370;BME280;20635;55.812;37.560;2023-07-02T01:40:09;97810.09;;;26.18;52.23
34370;BME280;20635;55.812;37.560;2023-07-02T01:42:35;97810.09;;;26.18;52.12
34370;BME280;20635;55.812;37.560;2023-07-02T01:45:02;97809.28;;;26.18;52.09
34370;BME280;20635;55.812;37.560;2023-07-02T01:47:28;97810.09;;;26.18;52.30
34370;BME280;20635;55.812;37.560;2023-07-02T01:49:54;97809.28;;;26.18;52.21
34370;BME280;20635;55.812;37.560;2023-07-02T01:52:19;97811.31;;;26.17;52.09
34370;BME280;20635;55.812;37.560;2023-07-02T01:54:45;97814.09;;;26.17;52.38
34370;BME280;20635;55.812;37.560;2023-07-02T01:57:11;97819.72;;;26.17;52.15
34370;BME280;20635;55.812;37.560;2023-07-02T01:59:37;97816.91;;;26.17;52.25
34370;BME280;20635;55.812;37.560;2023-07-02T02:02:03;97820.91;;;26.16;52.09
34370;BME280;20635;55.812;37.560;2023-07-02T02:04:28;97820.09;;;26.16;52.30
34370;BME280;20635;55.812;37.560;2023-07-02T02:06:55;97825.69;;;26.16;52.30
34370;BME280;20635;55.812;37.560;2023-07-02T02:09:21;97813.66;;;26.15;52.20
34370;BME280;20635;55.812;37.560;2023-07-02T02:11:50;97819.28;;;26.15;52.21
34370;BME280;20635;55.812;37.560;2023-07-02T02:14:17;97817.28;;;26.16;52.13
34370;BME280;20635;55.812;37.560;2023-07-02T02:16:43;97817.66;;;26.14;52.08
34370;BME280;20635;55.812;37.560;2023-07-02T02:19:11;97818.47;;;26.15;52.29
34370;BME280;20635;55.812;37.560;2023-07-02T02:21:38;97819.66;;;26.14;52.23
34370;BME280;20635;55.812;37.560;2023-07-02T02:24:05;97813.25;;;26.13;52.09
34370;BME280;20635;55.812;37.560;2023-07-02T02:26:31;97819.66;;;26.14;52.21
34370;BME280;20635;55.812;37.560;2023-07-02T02:28:56;97814.06;;;26.14;52.20
34370;BME280;20635;55.812;37.560;2023-07-02T02:31:23;97812.44;;;26.13;52.28
34370;BME280;20635;55.812;37.560;2023-07-02T02:33:48;97814.44;;;26.12;52.24
34370;BME280;20635;55.812;37.560;2023-07-02T02:36:15;97818.06;;;26.13;52.28
34370;BME280;20635;55.812;37.560;2023-07-02T02:38:42;97818.88;;;26.13;52.43
34370;BME280;20635;55.812;37.560;2023-07-02T02:41:08;97820.06;;;26.12;52.42
34370;BME280;20635;55.812;37.560;2023-07-02T02:43:40;97812.00;;;26.11;52.46
34370;BME280;20635;55.812;37.560;2023-07-02T02:46:06;97820.06;;;26.12;52.28
34370;BME280;20635;55.812;37.560;2023-07-02T02:48:32;97828.47;;;26.12;52.49
34370;BME280;20635;55.812;37.560;2023-07-02T02:50:57;97829.66;;;26.11;52.49
34370;BME280;20635;55.812;37.560;2023-07-02T02:53:24;97832.47;;;26.11;52.39
34370;BME280;20635;55.812;37.560;2023-07-02T02:55:50;97830.47;;;26.12;52.32
34370;BME280;20635;55.812;37.560;2023-07-02T02:58:16;97822.88;;;26.12;52.48
34370;BME280;20635;55.812;37.560;2023-07-02T03:00:41;97836.91;;;26.12;52.42
34370;BME280;20635;55.812;37.560;2023-07-02T03:03:12;97840.06;;;26.11;52.39
34370;BME280;20635;55.812;37.560;2023-07-02T03:05:38;97847.31;;;26.12;52.41
34370;BME280;20635;55.812;37.560;2023-07-02T03:08:03;97842.06;;;26.10;52.31
34370;BME280;20635;55.812;37.560;2023-07-02T03:10:29;97852.50;;;26.10;52.36
34370;BME280;20635;55.812;37.560;2023-07-02T03:12:55;97846.88;;;26.10;52.57
34370;BME280;20635;55.812;37.560;2023-07-02T03:15:20;97856.50;;;26.09;52.43
34370;BME280;20635;55.812;37.560;2023-07-02T03:17:46;97858.50;;;26.08;52.29
34370;BME280;20635;55.812;37.560;2023-07-02T03:20:12;97868.91;;;26.08;52.37
34370;BME280;20635;55.812;37.560;2023-07-02T03:22:37;97873.69;;;26.07;52.44
34370;BME280;20635;55.812;37.560;2023-07-02T03:25:03;97874.53;;;26.08;52.42
34370;BME280;20635;55.812;37.560;2023-07-02T03:27:30;97864.88;;;26.05;52.40
34370;BME280;20635;55.812;37.560;2023-07-02T03:29:55;97868.88;;;26.04;52.39
34370;BME280;20635;55.812;37.560;2023-07-02T03:32:21;97866.88;;;26.04;52.29
34370;BME280;20635;55.812;37.560;2023-07-02T03:34:47;97867.25;;;26.03;52.43
34370;BME280;20635;55.812;37.560;2023-07-02T03:37:12;97863.63;;;26.02;52.32
34370;BME280;20635;55.812;37.560;2023-07-02T03:39:38;97866.41;;;26.02;52.25
34370;BME280;20635;55.812;37.560;2023-07-02T03:42:05;97861.19;;;26.01;52.28
34370;BME280;20635;55.812;37.560;2023-07-02T03:44:31;97860.41;;;26.00;52.45
34370;BME280;20635;55.812;37.560;2023-07-02T03:46:56;97872.81;;;25.99;52.40
34370;BME280;20635;55.812;37.560;2023-07-02T03:49:22;97874.00;;;25.98;52.22
34370;BME280;20635;55.812;37.560;2023-07-02T03:51:48;97874.81;;;25.99;52.23
34370;BME280;20635;55.812;37.560;2023-07-02T03:54:13;97885.25;;;25.98;52.31
34370;BME280;20635;55.812;37.560;2023-07-02T03:56:39;97882.44;;;25.98;52.22
34370;BME280;20635;55.812;37.560;2023-07-02T03:59:05;97877.19;;;25.97;52.33
34370;BME280;20635;55.812;37.560;2023-07-02T04:01:30;97867.94;;;25.96;52.17
34370;BME280;20635;55.812;37.560;2023-07-02T04:03:56;97876.38;;;25.96;52.31
34370;BME280;20635;55.812;37.560;2023-07-02T04:06:22;97877.56;;;25.95;52.30
34370;BME280;20635;55.812;37.560;2023-07-02T04:08:48;97876.75;;;25.95;52.41
34370;BME280;20635;55.812;37.560;2023-07-02T04:11:14;97878.75;;;25.94;52.19
34370;BME280;20635;55.812;37.560;2023-07-02T04:13:39;97872.34;;;25.94;52.17
34370;BME280;20635;55.812;37.560;2023-07-02T04:16:05;97877.13;;;25.93;52.19
34370;BME280;20635;55.812;37.560;2023-07-02T04:18:31;97881.13;;;25.92;52.14
34370;BME280;20635;55.812;37.560;2023-07-02T04:20:57;97883.94;;;25.92;52.30
34370;BME280;20635;55.812;37.560;2023-07-02T04:23:23;97880.31;;;25.92;52.17
34370;BME280;20635;55.812;37.560;2023-07-02T04:25:49;97885.13;;;25.91;52.08
34370;BME280;20635;55.812;37.560;2023-07-02T04:28:15;97892.75;;;25.91;52.07
34370;BME280;20635;55.812;37.560;2023-07-02T04:30:41;97904.75;;;25.91;52.07
34370;BME280;20635;55.812;37.560;2023-07-02T04:33:07;97884.31;;;25.91;52.29
34370;BME280;20635;55.812;37.560;2023-07-02T04:35:33;97891.94;;;25.90;52.31
34370;BME280;20635;55.812;37.560;2023-07-02T04:38:00;97893.13;;;25.89;52.21
34370;BME280;20635;55.812;37.560;2023-07-02T04:40:26;97895.09;;;25.89;52.10
34370;BME280;20635;55.812;37.560;2023-07-02T04:42:51;97899.91;;;25.88;52.11
34370;BME280;20635;55.812;37.560;2023-07-02T04:45:23;97896.28;;;25.88;52.06
34370;BME280;20635;55.812;37.560;2023-07-02T04:47:50;97905.50;;;25.88;52.04
34370;BME280;20635;55.812;37.560;2023-07-02T04:50:16;97909.50;;;25.87;51.99
34370;BME280;20635;55.812;37.560;2023-07-02T04:52:41;97892.69;;;25.87;52.12
34370;BME280;20635;55.812;37.560;2023-07-02T04:55:07;97892.69;;;25.87;52.05
34370;BME280;20635;55.812;37.560;2023-07-02T04:57:33;97898.28;;;25.87;52.05
34370;BME280;20635;55.812;37.560;2023-07-02T04:59:59;97897.47;;;25.87;51.84
34370;BME280;20635;55.812;37.560;2023-07-02T05:02:24;97900.28;;;25.87;51.93
34370;BME280;20635;55.812;37.560;2023-07-02T05:04:50;97899.47;;;25.86;51.90
34370;BME280;20635;55.812;37.560;2023-07-02T05:07:16;97899.47;;;25.86;51.90
34370;BME280;20635;55.812;37.560;2023-07-02T05:09:42;97907.91;;;25.86;51.92
34370;BME280;20635;55.812;37.560;2023-07-02T05:12:07;97905.09;;;25.86;51.91
34370;BME280;20635;55.812;37.560;2023-07-02T05:14:33;97908.72;;;25.87;52.08
34370;BME280;20635;55.812;37.560;2023-07-02T05:16:59;97897.47;;;25.87;51.93
34370;BME280;20635;55.812;37.560;2023-07-02T05:19:25;97899.47;;;25.86;51.97
34370;BME280;20635;55.812;37.560;2023-07-02T05:21:50;97890.25;;;25.86;51.88
34370;BME280;20635;55.812;37.560;2023-07-02T05:24:16;97899.47;;;25.86;51.85
34370;BME280;20635;55.812;37.560;2023-07-02T05:26:42;97905.09;;;25.86;51.95
34370;BME280;20635;55.812;37.560;2023-07-02T05:29:07;97895.88;;;25.86;51.93
34370;BME280;20635;55.812;37.560;2023-07-02T05:31:33;97894.25;;;25.85;51.97
34370;BME280;20635;55.812;37.560;2023-07-02T05:33:59;97908.72;;;25.87;52.11
34370;BME280;20635;55.812;37.560;2023-07-02T05:36:25;97904.28;;;25.86;52.05
34370;BME280;20635;55.812;37.560;2023-07-02T05:38:51;97910.72;;;25.86;52.03
34370;BME280;20635;55.812;37.560;2023-07-02T05:41:20;97907.09;;;25.86;52.00
34370;BME280;20635;55.812;37.560;2023-07-02T05:43:45;97903.47;;;25.85;51.87
34370;BME280;20635;55.812;37.560;2023-07-02T05:46:11;97906.28;;;25.85;52.10
34370;BME280;20635;55.812;37.560;2023-07-02T05:48:39;97904.28;;;25.86;51.94
34370;BME280;20635;55.812;37.560;2023-07-02T05:51:05;97909.09;;;25.85;51.99
34370;BME280;20635;55.812;37.560;2023-07-02T05:53:31;97914.69;;;25.85;51.97
34370;BME280;20635;55.812;37.560;2023-07-02T05:55:56;97914.69;;;25.85;51.89
34370;BME280;20635;55.812;37.560;2023-07-02T05:58:22;97918.31;;;25.86;51.94
34370;BME280;20635;55.812;37.560;2023-07-02T06:00:48;97919.94;;;25.87;52.04
34370;BME280;20635;55.812;37.560;2023-07-02T06:03:17;97921.94;;;25.86;52.08
34370;BME280;20635;55.812;37.560;2023-07-02T06:05:48;97925.53;;;25.87;52.02
34370;BME280;20635;55.812;37.560;2023-07-02T06:08:15;97921.94;;;25.86;52.15
34370;BME280;20635;55.812;37.560;2023-07-02T06:10:41;97911.50;;;25.87;52.05
34370;BME280;20635;55.812;37.560;2023-07-02T06:13:06;97919.13;;;25.86;51.96
34370;BME280;20635;55.812;37.560;2023-07-02T06:15:32;97917.94;;;25.87;52.00
34370;BME280;20635;55.812;37.560;2023-07-02T06:17:58;97920.72;;;25.87;52.21
34370;BME280;20635;55.812;37.560;2023-07-02T06:20:23;97917.94;;;25.87;51.94
34370;BME280;20635;55.812;37.560;2023-07-02T06:22:49;97917.94;;;25.87;52.04
34370;BME280;20635;55.812;37.560;2023-07-02T06:25:14;97920.72;;;25.87;52.14
34370;BME280;20635;55.812;37.560;2023-07-02T06:27:40;97919.53;;;25.88;51.95
34370;BME280;20635;55.812;37.560;2023-07-02T06:30:06;97917.53;;;25.89;52.08
34370;BME280;20635;55.812;37.560;2023-07-02T06:32:32;97916.75;;;25.88;52.11
34370;BME280;20635;55.812;37.560;2023-07-02T06:34:57;97920.34;;;25.89;52.16
34370;BME280;20635;55.812;37.560;2023-07-02T06:37:23;97923.16;;;25.89;52.04
34370;BME280;20635;55.812;37.560;2023-07-02T06:39:49;97917.53;;;25.89;52.04
34370;BME280;20635;55.812;37.560;2023-07-02T06:42:14;97922.34;;;25.88;52.15
34370;BME280;20635;55.812;37.560;2023-07-02T06:44:40;97916.38;;;25.90;52.12
34370;BME280;20635;55.812;37.560;2023-07-02T06:47:06;97915.56;;;25.89;52.23
34370;BME280;20635;55.812;37.560;2023-07-02T06:49:32;97914.38;;;25.90;52.16
34370;BME280;20635;55.812;37.560;2023-07-02T06:51:58;97918.38;;;25.89;52.33
34370;BME280;20635;55.812;37.560;2023-07-02T06:54:25;97917.59;;;25.92;52.27
34370;BME280;20635;55.812;37.560;2023-07-02T06:56:51;97916.00;;;25.91;52.31
34370;BME280;20635;55.812;37.560;2023-07-02T06:59:20;97922.41;;;25.92;52.57
34370;BME280;20635;55.812;37.560;2023-07-02T07:01:46;97916.78;;;25.92;52.37
34370;BME280;20635;55.812;37.560;2023-07-02T07:04:12;97925.22;;;25.92;52.45
34370;BME280;20635;55.812;37.560;2023-07-02T07:06:38;97930.44;;;25.93;52.36
34370;BME280;20635;55.812;37.560;2023-07-02T07:09:03;97924.03;;;25.93;52.39
34370;BME280;20635;55.812;37.560;2023-07-02T07:11:29;97918.41;;;25.93;52.42
34370;BME280;20635;55.812;37.560;2023-07-02T07:13:55;97919.22;;;25.93;52.33
34370;BME280;20635;55.812;37.560;2023-07-02T07:16:21;97931.28;;;25.94;52.61
34370;BME280;20635;55.812;37.560;2023-07-02T07:18:47;97927.63;;;25.93;52.63
34370;BME280;20635;55.812;37.560;2023-07-02T07:21:13;97934.09;;;25.94;52.56
34370;BME280;20635;55.812;37.560;2023-07-02T07:23:39;97936.50;;;25.95;52.42
34370;BME280;20635;55.812;37.560;2023-07-02T07:26:05;97930.88;;;25.95;52.68
34370;BME280;20635;55.812;37.560;2023-07-02T07:28:30;97935.69;;;25.95;52.55
34370;BME280;20635;55.812;37.560;2023-07-02T07:30:56;97937.69;;;25.94;52.45
34370;BME280;20635;55.812;37.560;2023-07-02T07:33:22;97938.50;;;25.95;52.65
34370;BME280;20635;55.812;37.560;2023-07-02T07:35:48;97940.50;;;25.94;52.58
34370;BME280;20635;55.812;37.560;2023-07-02T07:38:13;97940.50;;;25.94;52.58
34370;BME280;20635;55.812;37.560;2023-07-02T07:40:40;97936.50;;;25.95;52.44
34370;BME280;20635;55.812;37.560;2023-07-02T07:43:05;97944.09;;;25.95;52.48
34370;BME280;20635;55.812;37.560;2023-07-02T07:45:34;97944.91;;;25.95;52.55
34370;BME280;20635;55.812;37.560;2023-07-02T07:48:00;97942.09;;;25.95;52.40
34370;BME280;20635;55.812;37.560;2023-07-02T07:50:26;97945.72;;;25.96;52.64
34370;BME280;20635;55.812;37.560;2023-07-02T07:52:51;97944.91;;;25.95;52.41
34370;BME280;20635;55.812;37.560;2023-07-02T07:55:17;97938.09;;;25.96;52.45
34370;BME280;20635;55.812;37.560;2023-07-02T07:57:43;97938.09;;;25.96;52.47
34370;BME280;20635;55.812;37.560;2023-07-02T08:00:09;97940.09;;;25.96;52.49
34370;BME280;20635;55.812;37.560;2023-07-02T08:02:45;97933.31;;;25.97;52.57
34370;BME280;20635;55.812;37.560;2023-07-02T08:05:11;97933.31;;;25.97;52.39
34370;BME280;20635;55.812;37.560;2023-07-02T08:07:36;97938.91;;;25.97;52.63
34370;BME280;20635;55.812;37.560;2023-07-02T08:10:02;97933.31;;;25.97;52.60
34370;BME280;20635;55.812;37.560;2023-07-02T08:12:29;97932.50;;;25.96;52.49
34370;BME280;20635;55.812;37.560;2023-07-02T08:14:58;97936.09;;;25.97;52.34
34370;BME280;20635;55.812;37.560;2023-07-02T08:17:24;97940.91;;;25.96;52.38
34370;BME280;20635;55.812;37.560;2023-07-02T08:19:49;97944.91;;;25.95;52.49
34370;BME280;20635;55.812;37.560;2023-07-02T08:22:15;97944.91;;;25.95;52.48
34370;BME280;20635;55.812;37.560;2023-07-02T08:24:41;97952.53;;;25.95;52.26
34370;BME280;20635;55.812;37.560;2023-07-02T08:27:06;97946.53;;;25.96;52.35
34370;BME280;20635;55.812;37.560;2023-07-02T08:29:32;97945.72;;;25.96;52.43
34370;BME280;20635;55.812;37.560;2023-07-02T08:31:58;97948.53;;;25.96;52.25
34370;BME280;20635;55.812;37.560;2023-07-02T08:34:24;97944.91;;;25.95;52.42
34370;BME280;20635;55.812;37.560;2023-07-02T08:36:50;97944.91;;;25.95;52.46
34370;BME280;20635;55.812;37.560;2023-07-02T08:39:17;97944.91;;;25.95;52.24
34370;BME280;20635;55.812;37.560;2023-07-02T08:41:46;97933.69;;;25.95;52.42
34370;BME280;20635;55.812;37.560;2023-07-02T08:44:12;97947.72;;;25.95;52.25
34370;BME280;20635;55.812;37.560;2023-07-02T08:46:41;97943.72;;;25.96;52.36
34370;BME280;20635;55.812;37.560;2023-07-02T08:49:07;97945.72;;;25.96;52.30
34370;BME280;20635;55.812;37.560;2023-07-02T08:51:33;97952.94;;;25.97;52.48
34370;BME280;20635;55.812;37.560;2023-07-02T08:53:59;97947.34;;;25.97;52.59
34370;BME280;20635;55.812;37.560;2023-07-02T08:56:25;97960.56;;;25.96;52.41
34370;BME280;20635;55.812;37.560;2023-07-02T08:58:52;97954.94;;;25.96;52.58
34370;BME280;20635;55.812;37.560;2023-07-02T09:01:18;97964.16;;;25.97;52.37
34370;BME280;20635;55.812;37.560;2023-07-02T09:03:44;97959.38;;;25.97;52.24
34370;BME280;20635;55.812;37.560;2023-07-02T09:06:10;97945.34;;;25.97;52.27
34370;BME280;20635;55.812;37.560;2023-07-02T09:08:36;97940.09;;;25.96;52.31
34370;BME280;20635;55.812;37.560;2023-07-02T09:11:11;97951.34;;;25.96;52.49
34370;BME280;20635;55.812;37.560;2023-07-02T09:13:41;97952.53;;;25.95;52.18
34370;BME280;20635;55.812;37.560;2023-07-02T09:16:07;97964.16;;;25.97;52.27
34370;BME280;20635;55.812;37.560;2023-07-02T09:18:32;97961.75;;;25.95;52.34
34370;BME280;20635;55.812;37.560;2023-07-02T09:20:58;97958.94;;;25.95;52.23
34370;BME280;20635;55.812;37.560;2023-07-02T09:23:31;97965.38;;;25.96;52.12
34370;BME280;20635;55.812;37.560;2023-07-02T09:25:57;97960.56;;;25.96;52.06
34370;BME280;20635;55.812;37.560;2023-07-02T09:28:23;97957.75;;;25.96;52.29
34370;BME280;20635;55.812;37.560;2023-07-02T09:30:52;97955.34;;;25.95;52.10
34370;BME280;20635;55.812;37.560;2023-07-02T09:33:18;97956.94;;;25.96;52.15
34370;BME280;20635;55.812;37.560;2023-07-02T09:35:44;97956.13;;;25.95;52.05
34370;BME280;20635;55.812;37.560;2023-07-02T09:38:10;97951.72;;;25.94;52.09
34370;BME280;20635;55.812;37.560;2023-07-02T09:40:37;97948.53;;;25.96;52.00
34370;BME280;20635;55.812;37.560;2023-07-02T09:43:10;97944.91;;;25.95;51.87
34370;BME280;20635;55.812;37.560;2023-07-02T09:45:36;97951.72;;;25.94;51.97
34370;BME280;20635;55.812;37.560;2023-07-02T09:48:02;97946.09;;;25.94;51.82
34370;BME280;20635;55.812;37.560;2023-07-02T09:50:28;97953.72;;;25.94;51.74
34370;BME280;20635;55.812;37.560;2023-07-02T09:52:55;97948.09;;;25.94;51.73
34370;BME280;20635;55.812;37.560;2023-07-02T09:55:21;97945.31;;;25.94;51.66
34370;BME280;20635;55.812;37.560;2023-07-02T09:57:47;97949.28;;;25.93;51.57
34370;BME280;20635;55.812;37.560;2023-07-02T10:00:13;97954.09;;;25.92;51.50
34370;BME280;20635;55.812;37.560;2023-07-02T10:02:39;97939.69;;;25.94;51.38
34370;BME280;20635;55.812;37.560;2023-07-02T10:05:06;97946.47;;;25.93;51.38
34370;BME280;20635;55.812;37.560;2023-07-02T10:07:32;97950.09;;;25.93;51.26
34370;BME280;20635;55.812;37.560;2023-07-02T10:09:58;97950.09;;;25.93;51.35
34370;BME280;20635;55.812;37.560;2023-07-02T10:12:25;97956.53;;;25.94;51.28
34370;BME280;20635;55.812;37.560;2023-07-02T10:14:54;97959.34;;;25.94;51.08
34370;BME280;20635;55.812;37.560;2023-07-02T10:17:24;97962.13;;;25.94;50.95
34370;BME280;20635;55.812;37.560;2023-07-02T10:19:53;97955.69;;;25.93;51.00
34370;BME280;20635;55.812;37.560;2023-07-02T10:22:19;97960.13;;;25.94;50.90
34370;BME280;20635;55.812;37.560;2023-07-02T10:24:52;97958.50;;;25.93;50.96
34370;BME280;20635;55.812;37.560;2023-07-02T10:27:18;97964.94;;;25.94;50.96
34370;BME280;20635;55.812;37.560;2023-07-02T10:29:50;97968.56;;;25.94;51.02
34370;BME280;20635;55.812;37.560;2023-07-02T10:32:25;97959.34;;;25.94;50.90
34370;BME280;20635;55.812;37.560;2023-07-02T10:34:51;97961.31;;;25.93;50.80
34370;BME280;20635;55.812;37.560;2023-07-02T10:37:17;97958.50;;;25.93;50.65
34370;BME280;20635;55.812;37.560;2023-07-02T10:39:43;97952.53;;;25.95;50.57
34370;BME280;20635;55.812;37.560;2023-07-02T10:42:09;97958.50;;;25.93;50.52
34370;BME280;20635;55.812;37.560;2023-07-02T10:44:46;97958.50;;;25.93;50.53
34370;BME280;20635;55.812;37.560;2023-07-02T10:47:12;97952.88;;;25.93;50.44
34370;BME280;20635;55.812;37.560;2023-07-02T10:49:38;97953.72;;;25.94;50.50
34370;BME280;20635;55.812;37.560;2023-07-02T10:52:04;97956.53;;;25.94;50.39
34370;BME280;20635;55.812;37.560;2023-07-02T10:55:03;97964.09;;;25.93;50.55
34370;BME280;20635;55.812;37.560;2023-07-02T10:57:22;97970.56;;;25.94;50.23
34370;BME280;20635;55.812;37.560;2023-07-02T10:59:48;97964.09;;;25.93;50.10
34370;BME280;20635;55.812;37.560;2023-07-02T11:02:14;97962.94;;;25.94;50.17
34370;BME280;20635;55.812;37.560;2023-07-02T11:04:40;97959.34;;;25.94;50.13
34370;BME280;20635;55.812;37.560;2023-07-02T11:07:06;97964.56;;;25.95;50.17
34370;BME280;20635;55.812;37.560;2023-07-02T11:09:32;97958.13;;;25.95;50.03
34370;BME280;20635;55.812;37.560;2023-07-02T11:11:58;97961.75;;;25.95;50.07
34370;BME280;20635;55.812;37.560;2023-07-02T11:14:33;97963.38;;;25.96;50.09
34370;BME280;20635;55.812;37.560;2023-07-02T11:17:02;97960.56;;;25.96;49.88
34370;BME280;20635;55.812;37.560;2023-07-02T11:19:28;97972.59;;;25.97;49.83
34370;BME280;20635;55.812;37.560;2023-07-02T11:21:55;97970.59;;;25.97;49.76
34370;BME280;20635;55.812;37.560;2023-07-02T11:24:33;97970.59;;;25.97;49.74
34370;BME280;20635;55.812;37.560;2023-07-02T11:27:00;97971.41;;;25.98;49.64
34370;BME280;20635;55.812;37.560;2023-07-02T11:29:26;97969.44;;;25.98;49.71
34370;BME280;20635;55.812;37.560;2023-07-02T11:31:52;97973.03;;;25.99;49.67
34370;BME280;20635;55.812;37.560;2023-07-02T11:34:18;97984.25;;;25.99;49.68
34370;BME280;20635;55.812;37.560;2023-07-02T11:36:44;97973.84;;;25.99;49.64
34370;BME280;20635;55.812;37.560;2023-07-02T11:39:10;97971.84;;;26.00;49.70
34370;BME280;20635;55.812;37.560;2023-07-02T11:41:44;97969.03;;;26.00;49.54
34370;BME280;20635;55.812;37.560;2023-07-02T11:44:11;97975.47;;;26.00;49.54
34370;BME280;20635;55.812;37.560;2023-07-02T11:46:37;97974.25;;;26.01;49.43
34370;BME280;20635;55.812;37.560;2023-07-02T11:49:03;97981.88;;;26.01;49.31
34370;BME280;20635;55.812;37.560;2023-07-02T11:51:35;97971.47;;;26.01;49.39
34370;BME280;20635;55.812;37.560;2023-07-02T11:54:01;97980.31;;;26.03;49.25
34370;BME280;20635;55.812;37.560;2023-07-02T11:56:27;97985.13;;;26.03;49.25
34370;BME280;20635;55.812;37.560;2023-07-02T11:58:52;97977.53;;;26.03;49.18
34370;BME280;20635;55.812;37.560;2023-07-02T12:01:18;97977.53;;;26.03;49.35
34370;BME280;20635;55.812;37.560;2023-07-02T12:03:44;97976.31;;;26.04;49.23
34370;BME280;20635;55.812;37.560;2023-07-02T12:06:10;97977.94;;;26.05;48.98
34370;BME280;20635;55.812;37.560;2023-07-02T12:08:35;97984.34;;;26.06;48.98
34370;BME280;20635;55.812;37.560;2023-07-02T12:11:01;97981.19;;;26.08;48.94
34370;BME280;20635;55.812;37.560;2023-07-02T12:13:27;97983.63;;;26.09;48.92
34370;BME280;20635;55.812;37.560;2023-07-02T12:15:52;97981.63;;;26.10;48.83
34370;BME280;20635;55.812;37.560;2023-07-02T12:18:18;97990.47;;;26.12;48.80
34370;BME280;20635;55.812;37.560;2023-07-02T12:20:44;97985.66;;;26.12;48.77
34370;BME280;20635;55.812;37.560;2023-07-02T12:23:10;97988.09;;;26.14;48.79
34370;BME280;20635;55.812;37.560;2023-07-02T12:25:37;97983.66;;;26.13;48.72
34370;BME280;20635;55.812;37.560;2023-07-02T12:28:03;97986.09;;;26.14;48.84
34370;BME280;20635;55.812;37.560;2023-07-02T12:30:29;97989.69;;;26.15;48.86
34370;BME280;20635;55.812;37.560;2023-07-02T12:32:54;97988.50;;;26.16;48.68
34370;BME280;20635;55.812;37.560;2023-07-02T12:35:20;97982.91;;;26.16;48.55
34370;BME280;20635;55.812;37.560;2023-07-02T12:37:46;97979.72;;;26.17;48.62
34370;BME280;20635;55.812;37.560;2023-07-02T12:40:13;97990.16;;;26.17;48.79
34370;BME280;20635;55.812;37.560;2023-07-02T12:45:05;97976.53;;;26.19;48.41
34370;BME280;20635;55.812;37.560;2023-07-02T12:47:31;97982.94;;;26.19;48.63
34370;BME280;20635;55.812;37.560;2023-07-02T12:49:56;97986.56;;;26.20;48.57